LFLC Airport Information

Runway Information
Runway 01 Length 2313 ft width 197 ft
Elevation 1092 ft Threshold 0 ft Heading 8
Runway 19 Length 2313 ft Width 197 ft
Elevation 1083 ft Threshold 0 ft Heading 188
Runway 08 Length 9885 ft width 148 ft
Elevation 1089 ft Threshold 0 ft Heading 82
Runway 26 Length 9885 ft Width 148 ft
Elevation 1057 ft Threshold 476 ft Heading 262
Runway 08L Length 2953 ft width 161 ft
Elevation 1072 ft Threshold 0 ft Heading 82
Runway 26R Length 2953 ft Width 161 ft
Elevation 1063 ft Threshold 0 ft Heading 262
Airport Frequencies
Type APP Name CLERMONT A Frequency 119.375 MHZ
Type APP Name CLERMONT A Frequency 122.225 MHZ
Type ATIS Name CLERMONT A Frequency 136.4 MHZ
Type FIS Name CLERMONT I Frequency 122.225 MHZ
Type GND Name CLERMONT G Frequency 121.95 MHZ
Type TWR Name CLERMONT T Frequency 118.625 MHZ
Airport Navaids
Type VOR-DME Name Clermont Frequency 114350 KHZ
Airport Weather Information & NOTAM
ADDS - METARS form results

(1619 UTC 19 August 2019)
Data provider http://aviationweather.gov/metar/data/
 
METAR text: LFLC 191600Z AUTO VRB02KT 9999 FEW043 22/11 Q1020 NOSIG
Conditions at: LFLC (CLERMONT/AULNAT , FR) observed 1600 UTC 19 August 2019
Temperature: 22.0°C (72°F)
Dewpoint: 11.0°C (52°F) [RH = 50%]
Pressure (altimeter): 30.12 inches Hg (1020.0 mb)
Winds: variable direction winds at 2 MPH (2 knots; 1.0 m/s)
Visibility: 6 or more miles (10+ km)
Ceiling: at least 12,000 feet AGL
Clouds: few clouds at 4300 feet AGL
Weather: no significant weather observed at this time

METAR text: LFLC 191530Z AUTO 10004KT 050V150 CAVOK 22/11 Q1020 NOSIG
Conditions at: LFLC (CLERMONT/AULNAT , FR) observed 1530 UTC 19 August 2019
Temperature: 22.0°C (72°F)
Dewpoint: 11.0°C (52°F) [RH = 50%]
Pressure (altimeter): 30.12 inches Hg (1020.0 mb)
Winds: from the E (100 degrees) at 5 MPH (4 knots; 2.1 m/s)
Visibility: 6 or more miles (10+ km)
Ceiling: ceiling and visibility are OK
Clouds: unknown
Weather: no significant weather observed at this time

Forecast for: LFLC (CLERMONT/AULNAT , FR)
Text: TAF LFLC 191400Z 1915/2015 VRB05KT CAVOK
Forecast period: 1500 UTC 19 August 2019 to 1500 UTC 20 August 2019
Forecast type: FROM: standard forecast or significant change
Winds: variable direction winds at 6 MPH (5 knots; 2.6 m/s)
Visibility: 6 or more miles 10+ km)
Ceiling: unknown
Clouds: missing
Weather: NSW  (no significant weather)
Text: PROB40
Forecast period: 0600 to 1200 UTC 20 August 2019
Forecast type: TEMPORARY: The following changes expected for less than half the time period
Visibility: missing
Ceiling: 3300 feet AGL
Clouds: broken clouds at 3300 feet AGL
overcast cloud deck at 8000 feet AGL
Weather: -RA  (light rain)